sensor_id;sensor_type;location;lat;lon;timestamp;pressure;altitude;pressure_sealevel;temperature;humidity
65760;BME280;52496;51.082;5.066;2023-07-31T00:01:21;101100.44;;;16.89;100.00
65760;BME280;52496;51.082;5.066;2023-07-31T00:03:52;101107.16;;;16.86;100.00
65760;BME280;52496;51.082;5.066;2023-07-31T00:06:22;101100.50;;;16.82;100.00
65760;BME280;52496;51.082;5.066;2023-07-31T00:08:53;101098.25;;;16.79;100.00
65760;BME280;52496;51.082;5.066;2023-07-31T00:11:23;101098.06;;;16.74;100.00
65760;BME280;52496;51.082;5.066;2023-07-31T00:13:54;101102.22;;;16.70;100.00
65760;BME280;52496;51.082;5.066;2023-07-31T00:16:24;101097.50;;;16.65;100.00
65760;BME280;52496;51.082;5.066;2023-07-31T00:18:55;101093.56;;;16.61;100.00
65760;BME280;52496;51.082;5.066;2023-07-31T00:21:25;101084.06;;;16.59;100.00
65760;BME280;52496;51.082;5.066;2023-07-31T00:23:56;101088.59;;;16.58;100.00
65760;BME280;52496;51.082;5.066;2023-07-31T00:26:26;101081.94;;;16.61;100.00
65760;BME280;52496;51.082;5.066;2023-07-31T00:28:57;101081.94;;;16.61;100.00
65760;BME280;52496;51.082;5.066;2023-07-31T00:31:27;101086.06;;;16.63;100.00
65760;BME280;52496;51.082;5.066;2023-07-31T00:33:58;101074.44;;;16.63;100.00
65760;BME280;52496;51.082;5.066;2023-07-31T00:36:29;101084.19;;;16.64;100.00
65760;BME280;52496;51.082;5.066;2023-07-31T00:38:59;101084.00;;;16.65;100.00
65760;BME280;52496;51.082;5.066;2023-07-31T00:41:30;101076.09;;;16.64;100.00
65760;BME280;52496;51.082;5.066;2023-07-31T00:44:01;101074.44;;;16.63;100.00
65760;BME280;52496;51.082;5.066;2023-07-31T00:46:31;101067.41;;;16.62;100.00
65760;BME280;52496;51.082;5.066;2023-07-31T00:49:02;101075.50;;;16.62;100.00
65760;BME280;52496;51.082;5.066;2023-07-31T00:51:34;101073.84;;;16.61;100.00
65760;BME280;52496;51.082;5.066;2023-07-31T00:54:06;101070.13;;;16.62;100.00
65760;BME280;52496;51.082;5.066;2023-07-31T00:56:36;101069.25;;;16.61;100.00
65760;BME280;52496;51.082;5.066;2023-07-31T00:59:07;101067.41;;;16.62;100.00
65760;BME280;52496;51.082;5.066;2023-07-31T01:01:38;101058.25;;;16.63;100.00
65760;BME280;52496;51.082;5.066;2023-07-31T01:04:08;101060.94;;;16.63;100.00
65760;BME280;52496;51.082;5.066;2023-07-31T01:07:07;101049.09;;;16.64;100.00
65760;BME280;52496;51.082;5.066;2023-07-31T01:09:49;101051.59;;;16.65;100.00
65760;BME280;52496;51.082;5.066;2023-07-31T01:12:23;101053.25;;;16.66;100.00
65760;BME280;52496;51.082;5.066;2023-07-31T01:15:07;101059.47;;;16.67;100.00
65760;BME280;52496;51.082;5.066;2023-07-31T01:17:43;101054.88;;;16.67;100.00
65760;BME280;52496;51.082;5.066;2023-07-31T01:20:21;101062.78;;;16.69;100.00
65760;BME280;52496;51.082;5.066;2023-07-31T01:26:12;101056.13;;;16.71;100.00
65760;BME280;52496;51.082;5.066;2023-07-31T01:31:20;101056.13;;;16.71;100.00
65760;BME280;52496;51.082;5.066;2023-07-31T01:33:56;101054.00;;;16.73;100.00
65760;BME280;52496;51.082;5.066;2023-07-31T01:36:29;101067.94;;;16.77;100.00
65760;BME280;52496;51.082;5.066;2023-07-31T01:39:01;101053.38;;;16.78;100.00
65760;BME280;52496;51.082;5.066;2023-07-31T01:41:32;101063.75;;;16.81;100.00
65760;BME280;52496;51.082;5.066;2023-07-31T01:44:03;101058.97;;;16.83;100.00
65760;BME280;52496;51.082;5.066;2023-07-31T01:46:33;101050.63;;;16.85;100.00
65760;BME280;52496;51.082;5.066;2023-07-31T01:49:05;101054.75;;;16.87;100.00
65760;BME280;52496;51.082;5.066;2023-07-31T01:51:36;101047.47;;;16.88;100.00
65760;BME280;52496;51.082;5.066;2023-07-31T01:54:06;101047.28;;;16.89;100.00
65760;BME280;52496;51.082;5.066;2023-07-31T01:56:37;101033.53;;;16.91;100.00
65760;BME280;52496;51.082;5.066;2023-07-31T01:59:07;101031.66;;;16.91;100.00
65760;BME280;52496;51.082;5.066;2023-07-31T02:01:38;101034.72;;;16.95;100.00
65760;BME280;52496;51.082;5.066;2023-07-31T02:04:08;101023.72;;;16.96;100.00
65760;BME280;52496;51.082;5.066;2023-07-31T02:06:39;101031.38;;;17.00;100.00
65760;BME280;52496;51.082;5.066;2023-07-31T02:09:09;101022.22;;;17.01;100.00
65760;BME280;52496;51.082;5.066;2023-07-31T02:11:40;101018.50;;;17.02;100.00
65760;BME280;52496;51.082;5.066;2023-07-31T02:14:10;101010.16;;;17.03;100.00
65760;BME280;52496;51.082;5.066;2023-07-31T02:16:41;101011.81;;;17.04;100.00
65760;BME280;52496;51.082;5.066;2023-07-31T02:19:13;101008.88;;;17.06;100.00
65760;BME280;52496;51.082;5.066;2023-07-31T02:21:43;101008.88;;;17.06;100.00
65760;BME280;52496;51.082;5.066;2023-07-31T02:24:14;100997.88;;;17.07;100.00
65760;BME280;52496;51.082;5.066;2023-07-31T02:26:44;100992.22;;;17.09;100.00
65760;BME280;52496;51.082;5.066;2023-07-31T02:29:15;100998.25;;;17.11;100.00
65760;BME280;52496;51.082;5.066;2023-07-31T02:31:45;100990.13;;;17.11;100.00
65760;BME280;52496;51.082;5.066;2023-07-31T02:34:16;100980.97;;;17.12;100.00
65760;BME280;52496;51.082;5.066;2023-07-31T02:36:46;100981.19;;;17.10;100.00
65760;BME280;52496;51.082;5.066;2023-07-31T02:39:17;100972.25;;;17.10;100.00
65760;BME280;52496;51.082;5.066;2023-07-31T02:41:47;100968.50;;;17.11;100.00
65760;BME280;52496;51.082;5.066;2023-07-31T02:44:18;100962.28;;;17.10;100.00
65760;BME280;52496;51.082;5.066;2023-07-31T02:46:48;100968.50;;;17.11;100.00
65760;BME280;52496;51.082;5.066;2023-07-31T02:49:19;100969.09;;;17.13;100.00
65760;BME280;52496;51.082;5.066;2023-07-31T02:51:50;100962.66;;;17.14;100.00
65760;BME280;52496;51.082;5.066;2023-07-31T02:54:20;100968.06;;;17.14;100.00
65760;BME280;52496;51.082;5.066;2023-07-31T02:56:52;100965.94;;;17.16;100.00
65760;BME280;52496;51.082;5.066;2023-07-31T02:59:22;100956.81;;;17.17;100.00
65760;BME280;52496;51.082;5.066;2023-07-31T03:01:53;100947.63;;;17.18;100.00
65760;BME280;52496;51.082;5.066;2023-07-31T03:04:23;100950.94;;;17.20;100.00
65760;BME280;52496;51.082;5.066;2023-07-31T03:06:54;100946.13;;;17.22;100.00
65760;BME280;52496;51.082;5.066;2023-07-31T03:09:24;100948.81;;;17.22;100.00
65760;BME280;52496;51.082;5.066;2023-07-31T03:11:55;100948.63;;;17.24;100.00
65760;BME280;52496;51.082;5.066;2023-07-31T03:14:25;100952.13;;;17.24;100.00
65760;BME280;52496;51.082;5.066;2023-07-31T03:16:56;100948.38;;;17.25;100.00
65760;BME280;52496;51.082;5.066;2023-07-31T03:19:30;100941.94;;;17.26;100.00
65760;BME280;52496;51.082;5.066;2023-07-31T03:22:01;100946.72;;;17.24;100.00
65760;BME280;52496;51.082;5.066;2023-07-31T03:24:31;100936.75;;;17.25;100.00
65760;BME280;52496;51.082;5.066;2023-07-31T03:27:02;100937.56;;;17.25;100.00
65760;BME280;52496;51.082;5.066;2023-07-31T03:29:33;100930.53;;;17.24;100.00
65760;BME280;52496;51.082;5.066;2023-07-31T03:32:03;100925.94;;;17.25;100.00
65760;BME280;52496;51.082;5.066;2023-07-31T03:34:34;100933.22;;;17.24;100.00
65760;BME280;52496;51.082;5.066;2023-07-31T03:37:05;100931.34;;;17.25;100.00
65760;BME280;52496;51.082;5.066;2023-07-31T03:39:35;100925.13;;;17.24;100.00
65760;BME280;52496;51.082;5.066;2023-07-31T03:42:06;100927.81;;;17.24;100.00
65760;BME280;52496;51.082;5.066;2023-07-31T03:44:36;100924.06;;;17.25;100.00
65760;BME280;52496;51.082;5.066;2023-07-31T03:47:07;100930.53;;;17.24;100.00
65760;BME280;52496;51.082;5.066;2023-07-31T03:49:37;100917.25;;;17.23;100.00
65760;BME280;52496;51.082;5.066;2023-07-31T03:52:08;100921.81;;;17.22;100.00
65760;BME280;52496;51.082;5.066;2023-07-31T03:54:39;100917.47;;;17.21;100.00
65760;BME280;52496;51.082;5.066;2023-07-31T03:57:10;100909.34;;;17.21;100.00
65760;BME280;52496;51.082;5.066;2023-07-31T03:59:40;100909.34;;;17.21;100.00
65760;BME280;52496;51.082;5.066;2023-07-31T04:02:11;100898.53;;;17.21;100.00
65760;BME280;52496;51.082;5.066;2023-07-31T04:04:41;100893.97;;;17.22;100.00
65760;BME280;52496;51.082;5.066;2023-07-31T04:07:12;100889.38;;;17.22;100.00
65760;BME280;52496;51.082;5.066;2023-07-31T04:09:42;100889.38;;;17.22;100.00
65760;BME280;52496;51.082;5.066;2023-07-31T04:12:12;100898.34;;;17.23;100.00
65760;BME280;52496;51.082;5.066;2023-07-31T04:14:44;100901.03;;;17.23;100.00
65760;BME280;52496;51.082;5.066;2023-07-31T04:17:14;100896.44;;;17.23;100.00
65760;BME280;52496;51.082;5.066;2023-07-31T04:19:45;100882.31;;;17.21;100.00
65760;BME280;52496;51.082;5.066;2023-07-31T04:22:15;100883.97;;;17.22;100.00
65760;BME280;52496;51.082;5.066;2023-07-31T04:24:46;100885.63;;;17.23;100.00
65760;BME280;52496;51.082;5.066;2023-07-31T04:27:16;100872.94;;;17.24;100.00
65760;BME280;52496;51.082;5.066;2023-07-31T04:29:47;100874.00;;;17.23;100.00
65760;BME280;52496;51.082;5.066;2023-07-31T04:32:17;100853.66;;;17.20;100.00
65760;BME280;52496;51.082;5.066;2023-07-31T04:34:49;100857.19;;;17.20;100.00
65760;BME280;52496;51.082;5.066;2023-07-31T04:37:19;100852.84;;;17.19;100.00
65760;BME280;52496;51.082;5.066;2023-07-31T04:39:50;100854.94;;;17.17;100.00
65760;BME280;52496;51.082;5.066;2023-07-31T04:42:20;100863.25;;;17.16;100.00
65760;BME280;52496;51.082;5.066;2023-07-31T04:44:51;100857.84;;;17.16;100.00
65760;BME280;52496;51.082;5.066;2023-07-31T04:47:23;100862.44;;;17.15;100.00
65760;BME280;52496;51.082;5.066;2023-07-31T04:49:53;100856.22;;;17.15;100.00
65760;BME280;52496;51.082;5.066;2023-07-31T04:52:24;100853.50;;;17.15;100.00
65760;BME280;52496;51.082;5.066;2023-07-31T04:54:54;100867.28;;;17.13;100.00
65760;BME280;52496;51.082;5.066;2023-07-31T04:57:25;100862.06;;;17.12;100.00
65760;BME280;52496;51.082;5.066;2023-07-31T04:59:55;100861.25;;;17.11;100.00
65760;BME280;52496;51.082;5.066;2023-07-31T05:02:25;100865.03;;;17.10;100.00
65760;BME280;52496;51.082;5.066;2023-07-31T05:04:56;100858.19;;;17.08;100.00
65760;BME280;52496;51.082;5.066;2023-07-31T05:07:27;100847.59;;;17.06;100.00
65760;BME280;52496;51.082;5.066;2023-07-31T05:09:58;100844.69;;;17.08;100.00
65760;BME280;52496;51.082;5.066;2023-07-31T05:12:28;100850.91;;;17.08;100.00
65760;BME280;52496;51.082;5.066;2023-07-31T05:14:59;100844.69;;;17.08;100.00
65760;BME280;52496;51.082;5.066;2023-07-31T05:17:29;100847.97;;;17.10;100.00
65760;BME280;52496;51.082;5.066;2023-07-31T05:20:00;100845.88;;;17.12;100.00
65760;BME280;52496;51.082;5.066;2023-07-31T05:22:31;100843.41;;;17.10;100.00
65760;BME280;52496;51.082;5.066;2023-07-31T05:25:10;100842.34;;;17.11;100.00
65760;BME280;52496;51.082;5.066;2023-07-31T05:27:41;100838.81;;;17.11;100.00
65760;BME280;52496;51.082;5.066;2023-07-31T05:30:11;100838.00;;;17.10;100.00
65760;BME280;52496;51.082;5.066;2023-07-31T05:32:43;100830.94;;;17.09;100.00
65760;BME280;52496;51.082;5.066;2023-07-31T05:35:13;100834.22;;;17.11;100.00
65760;BME280;52496;51.082;5.066;2023-07-31T05:37:44;100833.41;;;17.11;100.00
65760;BME280;52496;51.082;5.066;2023-07-31T05:40:14;100833.41;;;17.11;100.00
65760;BME280;52496;51.082;5.066;2023-07-31T05:42:45;100822.59;;;17.11;100.00
65760;BME280;52496;51.082;5.066;2023-07-31T05:45:15;100824.25;;;17.12;100.00
65760;BME280;52496;51.082;5.066;2023-07-31T05:47:46;100827.56;;;17.14;100.00
65760;BME280;52496;51.082;5.066;2023-07-31T05:50:16;100814.63;;;17.16;100.00
65760;BME280;52496;51.082;5.066;2023-07-31T05:52:47;100815.69;;;17.15;100.00
65760;BME280;52496;51.082;5.066;2023-07-31T05:55:17;100823.78;;;17.15;100.00
65760;BME280;52496;51.082;5.066;2023-07-31T05:57:48;100820.28;;;17.14;100.00
65760;BME280;52496;51.082;5.066;2023-07-31T06:00:18;100824.59;;;17.15;100.00
65760;BME280;52496;51.082;5.066;2023-07-31T06:02:49;100823.78;;;17.15;100.00
65760;BME280;52496;51.082;5.066;2023-07-31T06:05:20;100815.94;;;17.13;100.00
65760;BME280;52496;51.082;5.066;2023-07-31T06:07:50;100821.53;;;17.12;100.00
65760;BME280;52496;51.082;5.066;2023-07-31T06:10:21;100818.03;;;17.11;100.00
65760;BME280;52496;51.082;5.066;2023-07-31T06:12:52;100810.13;;;17.10;100.00
65760;BME280;52496;51.082;5.066;2023-07-31T06:15:22;100808.50;;;17.09;100.00
65760;BME280;52496;51.082;5.066;2023-07-31T06:17:53;100815.16;;;17.06;100.00
65760;BME280;52496;51.082;5.066;2023-07-31T06:20:23;100798.59;;;17.03;100.00
65760;BME280;52496;51.082;5.066;2023-07-31T06:22:54;100798.00;;;17.01;100.00
65760;BME280;52496;51.082;5.066;2023-07-31T06:25:24;100804.91;;;16.96;100.00
65760;BME280;52496;51.082;5.066;2023-07-31T06:27:55;100802.22;;;16.96;100.00
65760;BME280;52496;51.082;5.066;2023-07-31T06:30:25;100817.81;;;16.94;100.00
65760;BME280;52496;51.082;5.066;2023-07-31T06:32:56;100808.06;;;16.93;100.00
65760;BME280;52496;51.082;5.066;2023-07-31T06:35:26;100805.38;;;16.93;100.00
65760;BME280;52496;51.082;5.066;2023-07-31T06:37:57;100795.63;;;16.92;100.00
65760;BME280;52496;51.082;5.066;2023-07-31T06:40:29;100804.53;;;16.93;100.00
65760;BME280;52496;51.082;5.066;2023-07-31T06:42:59;100805.38;;;16.93;100.00
65760;BME280;52496;51.082;5.066;2023-07-31T06:45:37;100804.44;;;17.00;100.00
65760;BME280;52496;51.082;5.066;2023-07-31T06:48:08;100810.47;;;17.02;100.00
65760;BME280;52496;51.082;5.066;2023-07-31T06:50:38;100809.78;;;17.06;100.00
65760;BME280;52496;51.082;5.066;2023-07-31T06:53:09;100807.66;;;17.08;100.00
65760;BME280;52496;51.082;5.066;2023-07-31T06:55:39;100802.88;;;17.10;100.00
65760;BME280;52496;51.082;5.066;2023-07-31T06:58:10;100798.03;;;17.12;100.00
65760;BME280;52496;51.082;5.066;2023-07-31T07:00:40;100784.31;;;17.14;100.00
65760;BME280;52496;51.082;5.066;2023-07-31T07:03:11;100782.19;;;17.16;100.00
65760;BME280;52496;51.082;5.066;2023-07-31T07:05:41;100781.53;;;17.20;100.00
65760;BME280;52496;51.082;5.066;2023-07-31T07:08:12;100777.75;;;17.22;100.00
65760;BME280;52496;51.082;5.066;2023-07-31T07:10:42;100786.09;;;17.20;100.00
65760;BME280;52496;51.082;5.066;2023-07-31T07:13:13;100778.81;;;17.20;100.00
65760;BME280;52496;51.082;5.066;2023-07-31T07:15:47;100772.13;;;17.23;100.00
65760;BME280;52496;51.082;5.066;2023-07-31T07:18:18;100768.81;;;17.21;100.00
65760;BME280;52496;51.082;5.066;2023-07-31T07:20:50;100773.78;;;17.24;100.00
65760;BME280;52496;51.082;5.066;2023-07-31T07:23:21;100775.41;;;17.25;100.00
65760;BME280;52496;51.082;5.066;2023-07-31T07:25:51;100776.16;;;17.32;100.00
65760;BME280;52496;51.082;5.066;2023-07-31T07:28:22;100776.06;;;17.39;100.00
65760;BME280;52496;51.082;5.066;2023-07-31T07:30:53;100773.25;;;17.46;100.00
65760;BME280;52496;51.082;5.066;2023-07-31T07:33:24;100763.59;;;17.50;100.00
65760;BME280;52496;51.082;5.066;2023-07-31T07:35:54;100777.25;;;17.55;100.00
65760;BME280;52496;51.082;5.066;2023-07-31T07:38:25;100773.50;;;17.56;100.00
65760;BME280;52496;51.082;5.066;2023-07-31T07:40:55;100765.97;;;17.58;100.00
65760;BME280;52496;51.082;5.066;2023-07-31T07:43:26;100770.31;;;17.59;100.00
65760;BME280;52496;51.082;5.066;2023-07-31T07:45:56;100767.41;;;17.60;100.00
65760;BME280;52496;51.082;5.066;2023-07-31T07:48:27;100776.94;;;17.63;100.00
65760;BME280;52496;51.082;5.066;2023-07-31T07:50:57;100774.38;;;17.68;100.00
65760;BME280;52496;51.082;5.066;2023-07-31T07:53:28;100768.72;;;17.70;100.00
65760;BME280;52496;51.082;5.066;2023-07-31T07:55:58;100767.63;;;17.71;100.00
65760;BME280;52496;51.082;5.066;2023-07-31T07:58:29;100779.53;;;17.70;100.00
65760;BME280;52496;51.082;5.066;2023-07-31T08:00:59;100769.53;;;17.70;100.00
65760;BME280;52496;51.082;5.066;2023-07-31T08:03:30;100767.41;;;17.72;100.00
65760;BME280;52496;51.082;5.066;2023-07-31T08:06:01;100766.34;;;17.73;100.00
65760;BME280;52496;51.082;5.066;2023-07-31T08:08:32;100770.28;;;17.77;100.00
65760;BME280;52496;51.082;5.066;2023-07-31T08:11:02;100765.56;;;17.84;100.00
65760;BME280;52496;51.082;5.066;2023-07-31T08:13:33;100772.75;;;17.91;100.00
65760;BME280;52496;51.082;5.066;2023-07-31T08:16:04;100769.00;;;17.92;100.00
65760;BME280;52496;51.082;5.066;2023-07-31T08:18:34;100769.44;;;17.88;100.00
65760;BME280;52496;51.082;5.066;2023-07-31T08:21:05;100766.06;;;17.81;100.00
65760;BME280;52496;51.082;5.066;2023-07-31T08:23:35;100762.19;;;17.77;100.00
65760;BME280;52496;51.082;5.066;2023-07-31T08:26:06;100770.28;;;17.77;100.00
65760;BME280;52496;51.082;5.066;2023-07-31T08:28:37;100763.34;;;17.81;100.00
65760;BME280;52496;51.082;5.066;2023-07-31T08:31:07;100754.28;;;17.87;100.00
65760;BME280;52496;51.082;5.066;2023-07-31T08:33:39;100752.88;;;17.97;100.00
65760;BME280;52496;51.082;5.066;2023-07-31T08:36:10;100760.88;;;18.03;100.00
65760;BME280;52496;51.082;5.066;2023-07-31T08:38:40;100757.34;;;18.15;100.00
65760;BME280;52496;51.082;5.066;2023-07-31T08:41:11;100751.31;;;18.24;100.00
65760;BME280;52496;51.082;5.066;2023-07-31T08:43:45;100767.31;;;18.38;100.00
65760;BME280;52496;51.082;5.066;2023-07-31T08:46:16;100758.69;;;18.52;100.00
65760;BME280;52496;51.082;5.066;2023-07-31T08:48:46;100760.56;;;18.64;100.00
65760;BME280;52496;51.082;5.066;2023-07-31T08:51:18;100756.63;;;18.71;100.00
65760;BME280;52496;51.082;5.066;2023-07-31T08:53:49;100757.84;;;18.75;100.00
65760;BME280;52496;51.082;5.066;2023-07-31T08:56:20;100760.06;;;18.78;100.00
65760;BME280;52496;51.082;5.066;2023-07-31T08:58:52;100766.06;;;18.80;100.00
65760;BME280;52496;51.082;5.066;2023-07-31T09:01:24;100758.03;;;18.86;100.00
65760;BME280;52496;51.082;5.066;2023-07-31T09:03:55;100755.50;;;18.96;100.00
65760;BME280;52496;51.082;5.066;2023-07-31T09:06:28;100756.59;;;18.95;100.00
65760;BME280;52496;51.082;5.066;2023-07-31T09:08:59;100759.16;;;19.01;100.00
65760;BME280;52496;51.082;5.066;2023-07-31T09:11:30;100760.06;;;19.07;100.00
65760;BME280;52496;51.082;5.066;2023-07-31T09:14:01;100757.34;;;19.07;100.00
65760;BME280;52496;51.082;5.066;2023-07-31T09:16:51;100756.63;;;19.12;100.00
65760;BME280;52496;51.082;5.066;2023-07-31T09:19:31;100752.53;;;19.09;100.00
65760;BME280;52496;51.082;5.066;2023-07-31T09:22:05;100750.88;;;19.08;100.00
65760;BME280;52496;51.082;5.066;2023-07-31T09:24:35;100762.22;;;19.05;100.00
65760;BME280;52496;51.082;5.066;2023-07-31T09:27:07;100756.78;;;19.05;100.00
65760;BME280;52496;51.082;5.066;2023-07-31T09:29:37;100759.72;;;19.03;100.00
65760;BME280;52496;51.082;5.066;2023-07-31T09:32:16;100758.09;;;19.02;100.00
65760;BME280;52496;51.082;5.066;2023-07-31T09:34:47;100755.13;;;19.04;100.00
65760;BME280;52496;51.082;5.066;2023-07-31T09:37:17;100748.66;;;19.05;100.00
65760;BME280;52496;51.082;5.066;2023-07-31T09:39:49;100746.03;;;19.10;100.00
65760;BME280;52496;51.082;5.066;2023-07-31T09:42:26;100743.91;;;19.12;100.00
65760;BME280;52496;51.082;5.066;2023-07-31T09:45:07;100742.34;;;19.16;100.00
65760;BME280;52496;51.082;5.066;2023-07-31T09:47:38;100738.75;;;19.28;100.00
65760;BME280;52496;51.082;5.066;2023-07-31T09:50:09;100736.13;;;19.49;100.00
65760;BME280;52496;51.082;5.066;2023-07-31T09:52:39;100734.97;;;19.62;100.00
65760;BME280;52496;51.082;5.066;2023-07-31T09:55:10;100722.63;;;19.66;100.00
65760;BME280;52496;51.082;5.066;2023-07-31T09:57:43;100730.41;;;19.80;100.00
65760;BME280;52496;51.082;5.066;2023-07-31T10:00:16;100726.19;;;19.89;100.00
65760;BME280;52496;51.082;5.066;2023-07-31T10:02:47;100727.41;;;19.98;100.00
65760;BME280;52496;51.082;5.066;2023-07-31T10:05:19;100724.84;;;20.08;100.00
65760;BME280;52496;51.082;5.066;2023-07-31T10:07:57;100724.22;;;20.23;100.00
65760;BME280;52496;51.082;5.066;2023-07-31T10:10:27;100723.59;;;20.38;100.00
65760;BME280;52496;51.082;5.066;2023-07-31T10:12:59;100719.59;;;20.62;100.00
65760;BME280;52496;51.082;5.066;2023-07-31T10:15:30;100706.09;;;20.95;100.00
65760;BME280;52496;51.082;5.066;2023-07-31T10:18:02;100700.28;;;21.45;100.00
65760;BME280;52496;51.082;5.066;2023-07-31T10:20:36;100699.22;;;21.84;100.00
65760;BME280;52496;51.082;5.066;2023-07-31T10:23:07;100707.22;;;22.01;100.00
65760;BME280;52496;51.082;5.066;2023-07-31T10:25:38;100716.53;;;22.15;100.00
65760;BME280;52496;51.082;5.066;2023-07-31T10:28:10;100713.91;;;22.30;100.00
65760;BME280;52496;51.082;5.066;2023-07-31T10:30:41;100703.34;;;22.44;100.00
65760;BME280;52496;51.082;5.066;2023-07-31T10:33:12;100709.06;;;22.37;100.00
65760;BME280;52496;51.082;5.066;2023-07-31T10:35:43;100694.03;;;22.25;100.00
65760;BME280;52496;51.082;5.066;2023-07-31T10:38:14;100704.53;;;22.11;100.00
65760;BME280;52496;51.082;5.066;2023-07-31T10:40:44;100717.53;;;21.98;100.00
65760;BME280;52496;51.082;5.066;2023-07-31T10:43:25;100715.63;;;21.99;100.00
65760;BME280;52496;51.082;5.066;2023-07-31T10:46:09;100713.09;;;21.82;100.00
65760;BME280;52496;51.082;5.066;2023-07-31T10:48:41;100719.78;;;21.69;100.00
65760;BME280;52496;51.082;5.066;2023-07-31T10:51:12;100719.44;;;21.56;100.00
65760;BME280;52496;51.082;5.066;2023-07-31T10:53:43;100726.91;;;21.38;100.00
65760;BME280;52496;51.082;5.066;2023-07-31T10:56:13;100720.47;;;21.22;100.00
65760;BME280;52496;51.082;5.066;2023-07-31T10:59:01;100722.25;;;21.06;100.00
65760;BME280;52496;51.082;5.066;2023-07-31T11:01:58;100721.06;;;20.97;100.00
65760;BME280;52496;51.082;5.066;2023-07-31T11:04:32;100728.84;;;20.89;100.00
65760;BME280;52496;51.082;5.066;2023-07-31T11:07:03;100720.91;;;20.82;100.00
65760;BME280;52496;51.082;5.066;2023-07-31T11:09:38;100715.09;;;20.73;100.00
65760;BME280;52496;51.082;5.066;2023-07-31T11:12:08;100719.66;;;20.68;100.00
65760;BME280;52496;51.082;5.066;2023-07-31T11:14:40;100707.09;;;20.61;100.00
65760;BME280;52496;51.082;5.066;2023-07-31T11:17:10;100699.56;;;20.69;100.00
65760;BME280;52496;51.082;5.066;2023-07-31T11:19:41;100702.69;;;20.82;100.00
65760;BME280;52496;51.082;5.066;2023-07-31T11:22:12;100694.94;;;20.96;100.00
65760;BME280;52496;51.082;5.066;2023-07-31T11:24:43;100691.31;;;21.18;100.00
65760;BME280;52496;51.082;5.066;2023-07-31T11:27:14;100697.56;;;21.45;100.00
65760;BME280;52496;51.082;5.066;2023-07-31T11:29:44;100683.50;;;21.53;100.00
65760;BME280;52496;51.082;5.066;2023-07-31T11:32:18;100698.78;;;21.60;100.00
65760;BME280;52496;51.082;5.066;2023-07-31T11:34:54;100693.63;;;21.63;100.00
65760;BME280;52496;51.082;5.066;2023-07-31T11:37:41;100679.97;;;21.53;100.00
65760;BME280;52496;51.082;5.066;2023-07-31T11:40:12;100671.97;;;21.41;100.00
65760;BME280;52496;51.082;5.066;2023-07-31T11:42:43;100660.00;;;21.37;100.00
65760;BME280;52496;51.082;5.066;2023-07-31T11:45:14;100667.63;;;21.40;100.00
65760;BME280;52496;51.082;5.066;2023-07-31T11:47:45;100664.84;;;21.35;100.00
65760;BME280;52496;51.082;5.066;2023-07-31T11:50:16;100668.63;;;21.34;100.00
65760;BME280;52496;51.082;5.066;2023-07-31T11:52:48;100661.91;;;21.37;100.00
65760;BME280;52496;51.082;5.066;2023-07-31T11:55:21;100665.97;;;21.39;100.00
65760;BME280;52496;51.082;5.066;2023-07-31T11:57:52;100661.06;;;21.36;100.00
65760;BME280;52496;51.082;5.066;2023-07-31T12:00:25;100664.75;;;21.25;100.00
65760;BME280;52496;51.082;5.066;2023-07-31T12:02:56;100667.94;;;21.17;100.00
65760;BME280;52496;51.082;5.066;2023-07-31T12:05:27;100666.84;;;21.13;100.00
65760;BME280;52496;51.082;5.066;2023-07-31T12:07:57;100664.88;;;21.08;100.00
65760;BME280;52496;51.082;5.066;2023-07-31T12:10:32;100668.97;;;21.11;100.00
65760;BME280;52496;51.082;5.066;2023-07-31T12:13:20;100657.28;;;21.10;100.00
65760;BME280;52496;51.082;5.066;2023-07-31T12:15:59;100660.81;;;21.11;100.00
65760;BME280;52496;51.082;5.066;2023-07-31T12:18:36;100649.69;;;21.12;100.00
65760;BME280;52496;51.082;5.066;2023-07-31T12:21:08;100638.56;;;21.14;100.00
65760;BME280;52496;51.082;5.066;2023-07-31T12:23:40;100615.72;;;21.15;100.00
65760;BME280;52496;51.082;5.066;2023-07-31T12:26:14;100618.47;;;21.20;100.00
65760;BME280;52496;51.082;5.066;2023-07-31T12:28:49;100611.47;;;21.29;100.00
65760;BME280;52496;51.082;5.066;2023-07-31T12:31:21;100613.28;;;21.50;100.00
65760;BME280;52496;51.082;5.066;2023-07-31T12:33:53;100602.34;;;21.93;100.00
65760;BME280;52496;51.082;5.066;2023-07-31T12:36:24;100598.34;;;22.16;100.00
65760;BME280;52496;51.082;5.066;2023-07-31T12:38:54;100590.53;;;22.35;100.00
65760;BME280;52496;51.082;5.066;2023-07-31T12:41:27;100603.38;;;22.50;100.00
65760;BME280;52496;51.082;5.066;2023-07-31T12:43:57;100606.91;;;22.50;100.00
65760;BME280;52496;51.082;5.066;2023-07-31T12:46:28;100608.28;;;22.53;100.00
65760;BME280;52496;51.082;5.066;2023-07-31T12:48:58;100601.75;;;22.54;100.00
65760;BME280;52496;51.082;5.066;2023-07-31T12:51:29;100598.19;;;22.48;100.00
65760;BME280;52496;51.082;5.066;2023-07-31T12:54:00;100601.72;;;22.38;100.00
65760;BME280;52496;51.082;5.066;2023-07-31T12:56:30;100588.34;;;22.27;100.00
65760;BME280;52496;51.082;5.066;2023-07-31T12:59:01;100596.47;;;22.16;100.00
65760;BME280;52496;51.082;5.066;2023-07-31T13:01:31;100598.06;;;22.07;100.00
65760;BME280;52496;51.082;5.066;2023-07-31T13:04:02;100609.16;;;21.95;100.00
65760;BME280;52496;51.082;5.066;2023-07-31T13:06:33;100598.53;;;21.89;100.00
65760;BME280;52496;51.082;5.066;2023-07-31T13:09:04;100595.53;;;21.90;100.00